Sks Torrens — LAJM5 — position and weather

sailwx.info

Track history (hours):
 
Tides and Currents Weather Stations Pressure Air Temp Water Temp Dewpoint Dewpoint Depression Visibility Wind Speed Wind Dir Waves Ship Positions

Sks Torrens

Last reported at 2018-Feb-19 21:25 UTC. Time now 2018-Feb-20 17:54 UTC.
Position N 47°09' W 007°14'.

Length 242 m; draft 9.6 m.

Type: Ship. MMSI: 259956000.

Date/timePositionNaut miles runAvg speedWind from/ knotsBaromVisibWave heightAir tempDewpointWater temp
2018-Feb-19 21:25N 47°09' W 007°14'613.2
2018-Feb-19 20:59N 47°14' W 007°10'9912.5
2018-Feb-19 13:04N 48°42' W 005°60'1913.7
2018-Feb-19 11:43N 48°56' W 005°41'3312.8
2018-Feb-19 09:07N 49°13' W 004°58'1111.9
2018-Feb-19 08:12N 49°19' W 004°44'311.4
2018-Feb-19 07:57N 49°20' W 004°40'810.8
2018-Feb-19 07:11N 49°24' W 004°29'4011.8
2018-Feb-19 03:48N 49°44' W 003°36'614.2
2018-Feb-19 03:23N 49°47' W 003°28'614.7
2018-Feb-19 03:00N 49°50' W 003°20'815.1
2018-Feb-19 02:30N 49°54' W 003°10'714.9
2018-Feb-19 02:01N 49°57' W 002°60'714.6
2018-Feb-19 01:30N 49°59' W 002°49'714.2
2018-Feb-19 01:01N 50°01' W 002°38'813.3
2018-Feb-19 00:26N 50°03' W 002°27'912.1
2018-Feb-18 23:43N 50°06' W 002°14'411.3
2018-Feb-18 23:23N 50°07' W 002°08'410.6
2018-Feb-18 22:57N 50°08' W 002°01'510.1
2018-Feb-18 22:31N 50°09' W 001°54'5 9.6
2018-Feb-18 22:01N 50°10' W 001°47'5 9.6
2018-Feb-18 21:30N 50°11' W 001°40'5 9.9
2018-Feb-18 21:01N 50°13' W 001°33'510.3
2018-Feb-18 20:31N 50°15' W 001°25'611.2
2018-Feb-18 20:00N 50°17' W 001°17'3514.2
2018-Feb-18 17:32N 50°27' W 000°24'015.1
2018-Feb-18 17:30N 50°27' W 000°24'715.2
2018-Feb-18 17:01N 50°29' W 000°12'815.2
2018-Feb-18 16:31N 50°31' W 000°01'815.1
2018-Feb-18 16:00N 50°33' E 000°11'714.8
2018-Feb-18 15:31N 50°35' E 000°22'714.4
2018-Feb-18 15:01N 50°37' E 000°33'713.7
2018-Feb-18 14:30N 50°41' E 000°42'713.0
2018-Feb-18 14:00N 50°44' E 000°50'612.1
2018-Feb-18 13:30N 50°48' E 000°58'611.6
2018-Feb-18 13:00N 50°52' E 001°05'711.4
2018-Feb-18 12:23N 50°56' E 001°13'411.3
2018-Feb-18 12:00N 50°59' E 001°19'612.0
2018-Feb-18 11:30N 51°03' E 001°26'714.0
2018-Feb-18 11:01N 51°07' E 001°34'815.1
2018-Feb-18 10:30N 51°12' E 001°43'815.9
2018-Feb-18 10:00N 51°19' E 001°51'815.4
2018-Feb-18 09:31N 51°25' E 001°59'714.1
2018-Feb-18 09:00N 51°22' E 002°10'713.4
2018-Feb-18 08:31N 51°21' E 002°20'815.2
2018-Feb-18 08:00N 51°23' E 002°32'714.5
2018-Feb-18 07:31N 51°23' E 002°44'713.2
2018-Feb-18 07:00N 51°25' E 002°54'815.5
2018-Feb-18 06:31N 51°24' E 003°06'816.3
2018-Feb-18 06:01N 51°24' E 003°19'917.0
2018-Feb-18 05:31N 51°26' E 003°33'612.8
2018-Feb-18 05:01N 51°24' E 003°43'4 7.3
2018-Feb-18 04:25N 51°20' E 003°46'0 0.0
2018-Feb-18 03:43N 51°20' E 003°46'0 0.0
2018-Feb-18 03:22N 51°20' E 003°46'0 0.0
2018-Feb-18 02:55N 51°20' E 003°46'0 0.0
2018-Feb-18 02:25N 51°20' E 003°46'0 0.0
2018-Feb-18 01:58N 51°20' E 003°46'0 0.0
2018-Feb-18 01:25N 51°20' E 003°46'0 0.0
2018-Feb-18 00:43N 51°20' E 003°46'0 0.0
2018-Feb-18 00:19N 51°20' E 003°46'0 0.0
2018-Feb-17 23:55N 51°20' E 003°46'0 0.0
2018-Feb-17 23:25N 51°20' E 003°46'0 0.0
2018-Feb-17 22:55N 51°20' E 003°46'0 0.0
2018-Feb-17 22:25N 51°20' E 003°46'0 0.0
2018-Feb-17 21:55N 51°20' E 003°46'0 0.0
2018-Feb-17 21:25N 51°20' E 003°46'0 0.0
2018-Feb-17 20:55N 51°20' E 003°46'0 0.0
2018-Feb-17 20:28N 51°20' E 003°46'0 0.0
2018-Feb-17 19:55N 51°20' E 003°46'0 0.0
2018-Feb-17 19:28N 51°20' E 003°46'0 0.0
2018-Feb-17 18:55N 51°20' E 003°46'0 0.0
2018-Feb-17 18:28N 51°20' E 003°46'0 0.0
2018-Feb-17 17:55N 51°20' E 003°46'0 0.0
2018-Feb-17 17:25N 51°20' E 003°46'0 0.0
2018-Feb-17 16:58N 51°20' E 003°46'0 0.0
2018-Feb-17 16:19N 51°20' E 003°46'0 0.0
2018-Feb-17 15:58N 51°20' E 003°46'0 0.0
2018-Feb-17 15:28N 51°20' E 003°46'0 0.0
2018-Feb-17 14:46N 51°20' E 003°46'0 0.0
2018-Feb-17 14:19N 51°20' E 003°46'0 0.0
2018-Feb-17 13:49N 51°20' E 003°46'0 0.0
2018-Feb-17 13:22N 51°20' E 003°46'0 0.0
2018-Feb-17 12:55N 51°20' E 003°46'0 0.0
2018-Feb-17 12:13N 51°20' E 003°46'0 0.0
2018-Feb-17 11:58N 51°20' E 003°46'0 0.0
2018-Feb-17 11:19N 51°20' E 003°46'0 0.0
2018-Feb-17 10:52N 51°20' E 003°46'0 0.0
2018-Feb-17 10:19N 51°20' E 003°46'0 0.0
2018-Feb-17 09:55N 51°20' E 003°46'0 0.0
2018-Feb-17 09:25N 51°20' E 003°46'0 0.0
2018-Feb-17 08:55N 51°20' E 003°46'0 0.0
2018-Feb-17 08:28N 51°20' E 003°46'0 0.0
2018-Feb-17 07:52N 51°20' E 003°46'0 0.0
2018-Feb-17 07:25N 51°20' E 003°46'0 0.0
2018-Feb-17 06:43N 51°20' E 003°46'0 0.0
2018-Feb-17 06:25N 51°20' E 003°46'0 0.0
2018-Feb-17 05:55N 51°20' E 003°46'0 0.0
2018-Feb-17 05:28N 51°20' E 003°46'0 0.0
2018-Feb-17 04:58N 51°20' E 003°46'0 0.0
2018-Feb-17 04:19N 51°20' E 003°46'0 0.0
2018-Feb-17 03:58N 51°20' E 003°46'0 0.0
2018-Feb-17 03:25N 51°20' E 003°46'0 0.0
2018-Feb-17 02:55N 51°20' E 003°46'0 0.0
2018-Feb-17 02:19N 51°20' E 003°46'0 0.0
2018-Feb-17 01:55N 51°20' E 003°46'0 0.0
2018-Feb-17 01:25N 51°20' E 003°46'0 0.0
2018-Feb-17 00:55N 51°20' E 003°46'0 0.0
2018-Feb-17 00:22N 51°20' E 003°46'0 0.0
2018-Feb-16 23:49N 51°20' E 003°46'0 0.0
2018-Feb-16 23:22N 51°20' E 003°46'0 0.0
2018-Feb-16 22:55N 51°20' E 003°46'0 0.0
2018-Feb-16 22:28N 51°20' E 003°46'0 0.0
2018-Feb-16 21:49N 51°20' E 003°46'0 0.0
2018-Feb-16 21:25N 51°20' E 003°46'0 0.0
2018-Feb-16 20:55N 51°20' E 003°46'0 0.0
2018-Feb-16 20:25N 51°20' E 003°46'0 0.0
2018-Feb-16 19:58N 51°20' E 003°46'0 0.0
2018-Feb-16 19:25N 51°20' E 003°46'0 0.0
2018-Feb-16 18:55N 51°20' E 003°46'0 0.0
2018-Feb-16 18:25N 51°20' E 003°46'0 0.0
2018-Feb-16 17:55N 51°20' E 003°46'0 0.0
2018-Feb-16 17:28N 51°20' E 003°46'0 0.0
2018-Feb-16 16:58N 51°20' E 003°46'0 0.0
2018-Feb-16 16:25N 51°20' E 003°46'0 0.0
2018-Feb-16 15:55N 51°20' E 003°46'0 0.0
2018-Feb-16 15:25N 51°20' E 003°46'0 0.0
2018-Feb-16 14:58N 51°20' E 003°46'0 0.0
2018-Feb-16 14:25N 51°20' E 003°46'0 0.0
2018-Feb-16 13:58N 51°20' E 003°46'0 0.0
2018-Feb-16 13:25N 51°20' E 003°46'0 0.0
2018-Feb-16 12:55N 51°20' E 003°46'0 0.0
2018-Feb-16 12:28N 51°20' E 003°46'0 0.0
2018-Feb-16 11:55N 51°20' E 003°46'0 0.0
2018-Feb-16 11:25N 51°20' E 003°46'0 0.0
2018-Feb-16 10:55N 51°20' E 003°46'0 0.0
2018-Feb-16 10:25N 51°20' E 003°46'0 0.0
2018-Feb-16 09:55N 51°20' E 003°46'0 0.0
2018-Feb-16 09:28N 51°20' E 003°46'0 0.0
2018-Feb-16 08:49N 51°20' E 003°46'0 0.0
2018-Feb-16 08:19N 51°20' E 003°46'0 0.0
2018-Feb-16 07:49N 51°20' E 003°46'0 0.0
2018-Feb-16 07:25N 51°20' E 003°46'0 0.0
2018-Feb-16 06:55N 51°20' E 003°46'0 0.0
2018-Feb-16 06:25N 51°20' E 003°46'0 0.0
2018-Feb-16 05:55N 51°20' E 003°46'0 0.0
2018-Feb-16 05:28N 51°20' E 003°46'0 0.0
2018-Feb-16 04:49N 51°20' E 003°46'0 0.0
2018-Feb-16 04:25N 51°20' E 003°46'0 0.0
2018-Feb-16 03:58N 51°20' E 003°46'0 0.0
2018-Feb-16 03:25N 51°20' E 003°46'0 0.0
2018-Feb-16 02:58N 51°20' E 003°46'0 0.0
2018-Feb-16 02:25N 51°20' E 003°46'0 0.0
2018-Feb-16 01:49N 51°20' E 003°46'0 0.0
2018-Feb-16 01:28N 51°20' E 003°46'0 0.0
2018-Feb-16 00:55N 51°20' E 003°46'0 0.0
2018-Feb-16 00:25N 51°20' E 003°46'0 0.0
2018-Feb-15 23:58N 51°20' E 003°46'0 0.0
2018-Feb-15 23:25N 51°20' E 003°46'0 0.0
2018-Feb-15 22:55N 51°20' E 003°46'0 0.0
2018-Feb-15 22:25N 51°20' E 003°46'0 0.0
2018-Feb-15 21:55N 51°20' E 003°46'0 0.0
2018-Feb-15 21:19N 51°20' E 003°46'0 0.0
2018-Feb-15 20:58N 51°20' E 003°46'0 0.0
2018-Feb-15 20:28N 51°20' E 003°46'0 0.0
2018-Feb-15 19:49N 51°20' E 003°46'0 0.0
2018-Feb-15 19:13N 51°20' E 003°46'0 0.0
2018-Feb-15 18:46N 51°20' E 003°46'0 0.0
2018-Feb-15 18:19N 51°20' E 003°46'0 0.0
2018-Feb-15 17:55N 51°20' E 003°46'0 0.0
2018-Feb-15 17:25N 51°20' E 003°46'0 0.0
2018-Feb-15 16:55N 51°20' E 003°46'0 0.0
2018-Feb-15 16:28N 51°20' E 003°46'0 0.0
2018-Feb-15 15:58N 51°20' E 003°46'0 0.0
2018-Feb-15 15:25N 51°20' E 003°46'0 0.0
2018-Feb-15 14:58N 51°20' E 003°46'0 0.0
2018-Feb-15 14:28N 51°20' E 003°46'0 0.0
2018-Feb-15 13:55N 51°20' E 003°46'0 0.0
2018-Feb-15 13:25N 51°20' E 003°46'0 0.0
2018-Feb-15 12:55N 51°20' E 003°46'0 0.0
2018-Feb-15 12:25N 51°20' E 003°46'0 0.0
2018-Feb-15 11:55N 51°20' E 003°46'0 0.0
2018-Feb-15 11:25N 51°20' E 003°46'0 0.0
2018-Feb-15 10:55N 51°20' E 003°46'0 0.0
2018-Feb-15 10:25N 51°20' E 003°46'0 0.0
2018-Feb-15 09:49N 51°20' E 003°46'0 0.0
2018-Feb-15 09:28N 51°20' E 003°46'0 0.0
2018-Feb-15 08:55N 51°20' E 003°46'0 0.0
2018-Feb-15 08:22N 51°20' E 003°46'0 0.0
2018-Feb-15 07:55N 51°20' E 003°46'0 0.0
2018-Feb-15 07:28N 51°20' E 003°46'0 0.0
2018-Feb-15 06:58N 51°20' E 003°46'0 0.0
2018-Feb-15 06:25N 51°20' E 003°46'0 0.0
2018-Feb-15 05:52N 51°20' E 003°46'0 0.0
2018-Feb-15 05:25N 51°20' E 003°46'0 0.0
2018-Feb-15 04:43N 51°20' E 003°46'0 0.0
2018-Feb-15 04:25N 51°20' E 003°46'0 0.0
2018-Feb-15 03:55N 51°20' E 003°46'0 0.0
2018-Feb-15 03:25N 51°20' E 003°46'0 0.0
2018-Feb-15 02:58N 51°20' E 003°46'0 0.1
2018-Feb-15 02:30N 51°20' E 003°46'1 2.6
2018-Feb-15 02:00N 51°22' E 003°45'3 6.1
2018-Feb-15 01:30N 51°24' E 003°43'5 9.1
2018-Feb-15 01:00N 51°26' E 003°36'4 7.6
2018-Feb-15 00:30N 51°25' E 003°30'5 9.4
2018-Feb-15 00:00N 51°24' E 003°22'5 9.1
2018-Feb-14 23:31N 51°25' E 003°15'510.0
2018-Feb-14 23:00N 51°24' E 003°07'611.8
2018-Feb-14 22:30N 51°25' E 002°58'612.2
2018-Feb-14 22:00N 51°25' E 002°48'610.2
2018-Feb-14 21:27N 51°22' E 002°40'612.7
2018-Feb-14 20:58N 51°22' E 002°30'613.0
2018-Feb-14 20:30N 51°20' E 002°21'713.2
2018-Feb-14 20:00N 51°17' E 002°12'713.1
2018-Feb-14 19:31N 51°13' E 002°03'713.0
2018-Feb-14 19:00N 51°10' E 001°54'612.8
2018-Feb-14 18:30N 51°06' E 001°46'612.9
2018-Feb-14 18:01N 51°02' E 001°39'713.6
2018-Feb-14 17:30N 50°56' E 001°32'713.5
2018-Feb-14 17:00N 50°50' E 001°27'714.0
2018-Feb-14 16:30N 50°44' E 001°22'813.6
2018-Feb-14 15:56N 50°38' E 001°15'3813.4
2018-Feb-14 13:04N 50°24' E 000°19'213.4
2018-Feb-14 12:57N 50°23' E 000°17'613.5
2018-Feb-14 12:30N 50°21' E 000°08'713.8
2018-Feb-14 11:59N 50°20' W 000°03'713.9
2018-Feb-14 11:30N 50°18' W 000°13'3314.8
2018-Feb-14 09:16N 50°08' W 001°03'416.5
2018-Feb-14 09:01N 50°07' W 001°09'816.8
2018-Feb-14 08:31N 50°05' W 001°22'917.2
2018-Feb-14 08:00N 50°02' W 001°35'917.6
2018-Feb-14 07:31N 49°60' W 001°48'917.7
2018-Feb-14 07:01N 49°58' W 002°01'4316.2
2018-Feb-14 04:21N 49°45' W 003°05'715.3
2018-Feb-14 03:55N 49°41' W 003°14'9414.0
2018-Feb-13 21:12N 48°53' W 005°18'712.6
2018-Feb-13 20:40N 48°50' W 005°27'59812.2
2018-Feb-11 19:42N 39°25' W 009°57'513.0
2018-Feb-11 19:17N 39°19' W 009°56'413.0
2018-Feb-11 19:00N 39°16' W 009°56'612.8
2018-Feb-11 18:30N 39°09' W 009°56'612.8
2018-Feb-11 18:00N 39°03' W 009°57'612.7
2018-Feb-11 17:30N 38°56' W 009°57'612.7
2018-Feb-11 17:00N 38°50' W 009°57'613.0
2018-Feb-11 16:30N 38°44' W 009°57'612.8
2018-Feb-11 16:00N 38°37' W 009°55'612.9
2018-Feb-11 15:30N 38°31' W 009°53'612.8
2018-Feb-11 15:00N 38°25' W 009°52'1612.8
2018-Feb-11 13:47N 38°09' W 009°47'3213.0
2018-Feb-11 11:20N 37°38' W 009°39'21812.2
2018-Feb-10 17:27N 35°58' W 005°37'611.7
2018-Feb-10 16:58N 35°59' W 005°30'511.1
2018-Feb-10 16:30N 36°01' W 005°24'611.2
2018-Feb-10 16:00N 36°02' W 005°17'813.4
2018-Feb-10 15:27N 36°04' W 005°08'  
Track history (hours):
 
Tides and Currents Weather Stations Pressure Air Temp Water Temp Dewpoint Dewpoint Depression Visibility Wind Speed Wind Dir Waves Ship Positions

Sks Torrens

Last reported at 2018-Feb-19 21:25 UTC. Time now 2018-Feb-20 17:54 UTC.
Position N 47°09' W 007°14'.

Length 242 m; draft 9.6 m.

Type: Ship. MMSI: 259956000.

Date/timePositionNaut miles runAvg speedWind from/ knotsBaromVisibWave heightAir tempDewpointWater temp
2018-Feb-19 21:25N 47°09' W 007°14'613.2
2018-Feb-19 20:59N 47°14' W 007°10'9912.5
2018-Feb-19 13:04N 48°42' W 005°60'1913.7
2018-Feb-19 11:43N 48°56' W 005°41'3312.8
2018-Feb-19 09:07N 49°13' W 004°58'1111.9
2018-Feb-19 08:12N 49°19' W 004°44'311.4
2018-Feb-19 07:57N 49°20' W 004°40'810.8
2018-Feb-19 07:11N 49°24' W 004°29'4011.8
2018-Feb-19 03:48N 49°44' W 003°36'614.2
2018-Feb-19 03:23N 49°47' W 003°28'614.7
2018-Feb-19 03:00N 49°50' W 003°20'815.1
2018-Feb-19 02:30N 49°54' W 003°10'714.9
2018-Feb-19 02:01N 49°57' W 002°60'714.6
2018-Feb-19 01:30N 49°59' W 002°49'714.2
2018-Feb-19 01:01N 50°01' W 002°38'813.3
2018-Feb-19 00:26N 50°03' W 002°27'912.1
2018-Feb-18 23:43N 50°06' W 002°14'411.3
2018-Feb-18 23:23N 50°07' W 002°08'410.6
2018-Feb-18 22:57N 50°08' W 002°01'510.1
2018-Feb-18 22:31N 50°09' W 001°54'5 9.6
2018-Feb-18 22:01N 50°10' W 001°47'5 9.6
2018-Feb-18 21:30N 50°11' W 001°40'5 9.9
2018-Feb-18 21:01N 50°13' W 001°33'510.3
2018-Feb-18 20:31N 50°15' W 001°25'611.2
2018-Feb-18 20:00N 50°17' W 001°17'3514.2
2018-Feb-18 17:32N 50°27' W 000°24'015.1
2018-Feb-18 17:30N 50°27' W 000°24'715.2
2018-Feb-18 17:01N 50°29' W 000°12'815.2
2018-Feb-18 16:31N 50°31' W 000°01'815.1
2018-Feb-18 16:00N 50°33' E 000°11'714.8
2018-Feb-18 15:31N 50°35' E 000°22'714.4
2018-Feb-18 15:01N 50°37' E 000°33'713.7
2018-Feb-18 14:30N 50°41' E 000°42'713.0
2018-Feb-18 14:00N 50°44' E 000°50'612.1
2018-Feb-18 13:30N 50°48' E 000°58'611.6
2018-Feb-18 13:00N 50°52' E 001°05'711.4
2018-Feb-18 12:23N 50°56' E 001°13'411.3
2018-Feb-18 12:00N 50°59' E 001°19'612.0
2018-Feb-18 11:30N 51°03' E 001°26'714.0
2018-Feb-18 11:01N 51°07' E 001°34'815.1
2018-Feb-18 10:30N 51°12' E 001°43'815.9
2018-Feb-18 10:00N 51°19' E 001°51'815.4
2018-Feb-18 09:31N 51°25' E 001°59'714.1
2018-Feb-18 09:00N 51°22' E 002°10'713.4
2018-Feb-18 08:31N 51°21' E 002°20'815.2
2018-Feb-18 08:00N 51°23' E 002°32'714.5
2018-Feb-18 07:31N 51°23' E 002°44'713.2
2018-Feb-18 07:00N 51°25' E 002°54'815.5
2018-Feb-18 06:31N 51°24' E 003°06'816.3
2018-Feb-18 06:01N 51°24' E 003°19'917.0
2018-Feb-18 05:31N 51°26' E 003°33'612.8
2018-Feb-18 05:01N 51°24' E 003°43'4 7.3
2018-Feb-18 04:25N 51°20' E 003°46'0 0.0
2018-Feb-18 03:43N 51°20' E 003°46'0 0.0
2018-Feb-18 03:22N 51°20' E 003°46'0 0.0
2018-Feb-18 02:55N 51°20' E 003°46'0 0.0
2018-Feb-18 02:25N 51°20' E 003°46'0 0.0
2018-Feb-18 01:58N 51°20' E 003°46'0 0.0
2018-Feb-18 01:25N 51°20' E 003°46'0 0.0
2018-Feb-18 00:43N 51°20' E 003°46'0 0.0
2018-Feb-18 00:19N 51°20' E 003°46'0 0.0
2018-Feb-17 23:55N 51°20' E 003°46'0 0.0
2018-Feb-17 23:25N 51°20' E 003°46'0 0.0
2018-Feb-17 22:55N 51°20' E 003°46'0 0.0
2018-Feb-17 22:25N 51°20' E 003°46'0 0.0
2018-Feb-17 21:55N 51°20' E 003°46'0 0.0
2018-Feb-17 21:25N 51°20' E 003°46'0 0.0
2018-Feb-17 20:55N 51°20' E 003°46'0 0.0
2018-Feb-17 20:28N 51°20' E 003°46'0 0.0
2018-Feb-17 19:55N 51°20' E 003°46'0 0.0
2018-Feb-17 19:28N 51°20' E 003°46'0 0.0
2018-Feb-17 18:55N 51°20' E 003°46'0 0.0
2018-Feb-17 18:28N 51°20' E 003°46'0 0.0
2018-Feb-17 17:55N 51°20' E 003°46'0 0.0
2018-Feb-17 17:25N 51°20' E 003°46'0 0.0
2018-Feb-17 16:58N 51°20' E 003°46'0 0.0
2018-Feb-17 16:19N 51°20' E 003°46'0 0.0
2018-Feb-17 15:58N 51°20' E 003°46'0 0.0
2018-Feb-17 15:28N 51°20' E 003°46'0 0.0
2018-Feb-17 14:46N 51°20' E 003°46'0 0.0
2018-Feb-17 14:19N 51°20' E 003°46'0 0.0
2018-Feb-17 13:49N 51°20' E 003°46'0 0.0
2018-Feb-17 13:22N 51°20' E 003°46'0 0.0
2018-Feb-17 12:55N 51°20' E 003°46'0 0.0
2018-Feb-17 12:13N 51°20' E 003°46'0 0.0
2018-Feb-17 11:58N 51°20' E 003°46'0 0.0
2018-Feb-17 11:19N 51°20' E 003°46'0 0.0
2018-Feb-17 10:52N 51°20' E 003°46'0 0.0
2018-Feb-17 10:19N 51°20' E 003°46'0 0.0
2018-Feb-17 09:55N 51°20' E 003°46'0 0.0
2018-Feb-17 09:25N 51°20' E 003°46'0 0.0
2018-Feb-17 08:55N 51°20' E 003°46'0 0.0
2018-Feb-17 08:28N 51°20' E 003°46'0 0.0
2018-Feb-17 07:52N 51°20' E 003°46'0 0.0
2018-Feb-17 07:25N 51°20' E 003°46'0 0.0
2018-Feb-17 06:43N 51°20' E 003°46'0 0.0
2018-Feb-17 06:25N 51°20' E 003°46'0 0.0
2018-Feb-17 05:55N 51°20' E 003°46'0 0.0
2018-Feb-17 05:28N 51°20' E 003°46'0 0.0
2018-Feb-17 04:58N 51°20' E 003°46'0 0.0
2018-Feb-17 04:19N 51°20' E 003°46'0 0.0
2018-Feb-17 03:58N 51°20' E 003°46'0 0.0
2018-Feb-17 03:25N 51°20' E 003°46'0 0.0
2018-Feb-17 02:55N 51°20' E 003°46'0 0.0
2018-Feb-17 02:19N 51°20' E 003°46'0 0.0
2018-Feb-17 01:55N 51°20' E 003°46'0 0.0
2018-Feb-17 01:25N 51°20' E 003°46'0 0.0
2018-Feb-17 00:55N 51°20' E 003°46'0 0.0
2018-Feb-17 00:22N 51°20' E 003°46'0 0.0
2018-Feb-16 23:49N 51°20' E 003°46'0 0.0
2018-Feb-16 23:22N 51°20' E 003°46'0 0.0
2018-Feb-16 22:55N 51°20' E 003°46'0 0.0
2018-Feb-16 22:28N 51°20' E 003°46'0 0.0
2018-Feb-16 21:49N 51°20' E 003°46'0 0.0
2018-Feb-16 21:25N 51°20' E 003°46'0 0.0
2018-Feb-16 20:55N 51°20' E 003°46'0 0.0
2018-Feb-16 20:25N 51°20' E 003°46'0 0.0
2018-Feb-16 19:58N 51°20' E 003°46'0 0.0
2018-Feb-16 19:25N 51°20' E 003°46'0 0.0
2018-Feb-16 18:55N 51°20' E 003°46'0 0.0
2018-Feb-16 18:25N 51°20' E 003°46'0 0.0
2018-Feb-16 17:55N 51°20' E 003°46'0 0.0
2018-Feb-16 17:28N 51°20' E 003°46'0 0.0
2018-Feb-16 16:58N 51°20' E 003°46'0 0.0
2018-Feb-16 16:25N 51°20' E 003°46'0 0.0
2018-Feb-16 15:55N 51°20' E 003°46'0 0.0
2018-Feb-16 15:25N 51°20' E 003°46'0 0.0
2018-Feb-16 14:58N 51°20' E 003°46'0 0.0
2018-Feb-16 14:25N 51°20' E 003°46'0 0.0
2018-Feb-16 13:58N 51°20' E 003°46'0 0.0
2018-Feb-16 13:25N 51°20' E 003°46'0 0.0
2018-Feb-16 12:55N 51°20' E 003°46'0 0.0
2018-Feb-16 12:28N 51°20' E 003°46'0 0.0
2018-Feb-16 11:55N 51°20' E 003°46'0 0.0
2018-Feb-16 11:25N 51°20' E 003°46'0 0.0
2018-Feb-16 10:55N 51°20' E 003°46'0 0.0
2018-Feb-16 10:25N 51°20' E 003°46'0 0.0
2018-Feb-16 09:55N 51°20' E 003°46'0 0.0
2018-Feb-16 09:28N 51°20' E 003°46'0 0.0
2018-Feb-16 08:49N 51°20' E 003°46'0 0.0
2018-Feb-16 08:19N 51°20' E 003°46'0 0.0
2018-Feb-16 07:49N 51°20' E 003°46'0 0.0
2018-Feb-16 07:25N 51°20' E 003°46'0 0.0
2018-Feb-16 06:55N 51°20' E 003°46'0 0.0
2018-Feb-16 06:25N 51°20' E 003°46'0 0.0
2018-Feb-16 05:55N 51°20' E 003°46'0 0.0
2018-Feb-16 05:28N 51°20' E 003°46'0 0.0
2018-Feb-16 04:49N 51°20' E 003°46'0 0.0
2018-Feb-16 04:25N 51°20' E 003°46'0 0.0
2018-Feb-16 03:58N 51°20' E 003°46'0 0.0
2018-Feb-16 03:25N 51°20' E 003°46'0 0.0
2018-Feb-16 02:58N 51°20' E 003°46'0 0.0
2018-Feb-16 02:25N 51°20' E 003°46'0 0.0
2018-Feb-16 01:49N 51°20' E 003°46'0 0.0
2018-Feb-16 01:28N 51°20' E 003°46'0 0.0
2018-Feb-16 00:55N 51°20' E 003°46'0 0.0
2018-Feb-16 00:25N 51°20' E 003°46'0 0.0
2018-Feb-15 23:58N 51°20' E 003°46'0 0.0
2018-Feb-15 23:25N 51°20' E 003°46'0 0.0
2018-Feb-15 22:55N 51°20' E 003°46'0 0.0
2018-Feb-15 22:25N 51°20' E 003°46'0 0.0
2018-Feb-15 21:55N 51°20' E 003°46'0 0.0
2018-Feb-15 21:19N 51°20' E 003°46'0 0.0
2018-Feb-15 20:58N 51°20' E 003°46'0 0.0
2018-Feb-15 20:28N 51°20' E 003°46'0 0.0
2018-Feb-15 19:49N 51°20' E 003°46'0 0.0
2018-Feb-15 19:13N 51°20' E 003°46'0 0.0
2018-Feb-15 18:46N 51°20' E 003°46'0 0.0
2018-Feb-15 18:19N 51°20' E 003°46'0 0.0
2018-Feb-15 17:55N 51°20' E 003°46'0 0.0
2018-Feb-15 17:25N 51°20' E 003°46'0 0.0
2018-Feb-15 16:55N 51°20' E 003°46'0 0.0
2018-Feb-15 16:28N 51°20' E 003°46'0 0.0
2018-Feb-15 15:58N 51°20' E 003°46'0 0.0
2018-Feb-15 15:25N 51°20' E 003°46'0 0.0
2018-Feb-15 14:58N 51°20' E 003°46'0 0.0
2018-Feb-15 14:28N 51°20' E 003°46'0 0.0
2018-Feb-15 13:55N 51°20' E 003°46'0 0.0
2018-Feb-15 13:25N 51°20' E 003°46'0 0.0
2018-Feb-15 12:55N 51°20' E 003°46'0 0.0
2018-Feb-15 12:25N 51°20' E 003°46'0 0.0
2018-Feb-15 11:55N 51°20' E 003°46'0 0.0
2018-Feb-15 11:25N 51°20' E 003°46'0 0.0
2018-Feb-15 10:55N 51°20' E 003°46'0 0.0
2018-Feb-15 10:25N 51°20' E 003°46'0 0.0
2018-Feb-15 09:49N 51°20' E 003°46'0 0.0
2018-Feb-15 09:28N 51°20' E 003°46'0 0.0
2018-Feb-15 08:55N 51°20' E 003°46'0 0.0
2018-Feb-15 08:22N 51°20' E 003°46'0 0.0
2018-Feb-15 07:55N 51°20' E 003°46'0 0.0
2018-Feb-15 07:28N 51°20' E 003°46'0 0.0
2018-Feb-15 06:58N 51°20' E 003°46'0 0.0
2018-Feb-15 06:25N 51°20' E 003°46'0 0.0
2018-Feb-15 05:52N 51°20' E 003°46'0 0.0
2018-Feb-15 05:25N 51°20' E 003°46'0 0.0
2018-Feb-15 04:43N 51°20' E 003°46'0 0.0
2018-Feb-15 04:25N 51°20' E 003°46'0 0.0
2018-Feb-15 03:55N 51°20' E 003°46'0 0.0
2018-Feb-15 03:25N 51°20' E 003°46'0 0.0
2018-Feb-15 02:58N 51°20' E 003°46'0 0.1
2018-Feb-15 02:30N 51°20' E 003°46'1 2.6
2018-Feb-15 02:00N 51°22' E 003°45'3 6.1
2018-Feb-15 01:30N 51°24' E 003°43'5 9.1
2018-Feb-15 01:00N 51°26' E 003°36'4 7.6
2018-Feb-15 00:30N 51°25' E 003°30'5 9.4
2018-Feb-15 00:00N 51°24' E 003°22'5 9.1
2018-Feb-14 23:31N 51°25' E 003°15'510.0
2018-Feb-14 23:00N 51°24' E 003°07'611.8
2018-Feb-14 22:30N 51°25' E 002°58'612.2
2018-Feb-14 22:00N 51°25' E 002°48'610.2
2018-Feb-14 21:27N 51°22' E 002°40'612.7
2018-Feb-14 20:58N 51°22' E 002°30'613.0
2018-Feb-14 20:30N 51°20' E 002°21'713.2
2018-Feb-14 20:00N 51°17' E 002°12'713.1
2018-Feb-14 19:31N 51°13' E 002°03'713.0
2018-Feb-14 19:00N 51°10' E 001°54'612.8
2018-Feb-14 18:30N 51°06' E 001°46'612.9
2018-Feb-14 18:01N 51°02' E 001°39'713.6
2018-Feb-14 17:30N 50°56' E 001°32'713.5
2018-Feb-14 17:00N 50°50' E 001°27'714.0
2018-Feb-14 16:30N 50°44' E 001°22'813.6
2018-Feb-14 15:56N 50°38' E 001°15'3813.4
2018-Feb-14 13:04N 50°24' E 000°19'213.4
2018-Feb-14 12:57N 50°23' E 000°17'613.5
2018-Feb-14 12:30N 50°21' E 000°08'713.8
2018-Feb-14 11:59N 50°20' W 000°03'713.9
2018-Feb-14 11:30N 50°18' W 000°13'3314.8
2018-Feb-14 09:16N 50°08' W 001°03'416.5
2018-Feb-14 09:01N 50°07' W 001°09'816.8
2018-Feb-14 08:31N 50°05' W 001°22'917.2
2018-Feb-14 08:00N 50°02' W 001°35'917.6
2018-Feb-14 07:31N 49°60' W 001°48'917.7
2018-Feb-14 07:01N 49°58' W 002°01'4316.2
2018-Feb-14 04:21N 49°45' W 003°05'715.3
2018-Feb-14 03:55N 49°41' W 003°14'9414.0
2018-Feb-13 21:12N 48°53' W 005°18'712.6
2018-Feb-13 20:40N 48°50' W 005°27'59812.2
2018-Feb-11 19:42N 39°25' W 009°57'513.0
2018-Feb-11 19:17N 39°19' W 009°56'413.0
2018-Feb-11 19:00N 39°16' W 009°56'612.8
2018-Feb-11 18:30N 39°09' W 009°56'612.8
2018-Feb-11 18:00N 39°03' W 009°57'612.7
2018-Feb-11 17:30N 38°56' W 009°57'612.7
2018-Feb-11 17:00N 38°50' W 009°57'613.0
2018-Feb-11 16:30N 38°44' W 009°57'612.8
2018-Feb-11 16:00N 38°37' W 009°55'612.9
2018-Feb-11 15:30N 38°31' W 009°53'612.8
2018-Feb-11 15:00N 38°25' W 009°52'1612.8
2018-Feb-11 13:47N 38°09' W 009°47'3213.0
2018-Feb-11 11:20N 37°38' W 009°39'21812.2
2018-Feb-10 17:27N 35°58' W 005°37'611.7
2018-Feb-10 16:58N 35°59' W 005°30'511.1
2018-Feb-10 16:30N 36°01' W 005°24'611.2
2018-Feb-10 16:00N 36°02' W 005°17'813.4
2018-Feb-10 15:27N 36°04' W 005°08'  

Dump ship's entire track history